createdAt,value
2018-08-19T00:01:19.203Z,100348.25
2018-08-19T00:03:48.537Z,100344.27
2018-08-19T00:06:20.101Z,100339.98
2018-08-19T00:08:49.519Z,100334.30
2018-08-19T00:11:20.322Z,100331.64
2018-08-19T00:13:56.661Z,100331.92
2018-08-19T00:16:27.739Z,100331.02
2018-08-19T00:18:57.861Z,100331.25
2018-08-19T00:21:29.217Z,100332.13
2018-08-19T00:23:59.468Z,100337.45
2018-08-19T00:26:29.688Z,100328.45
2018-08-19T00:29:00.757Z,100327.48
2018-08-19T00:31:34.554Z,100330.46
2018-08-19T00:34:05.165Z,100324.70
2018-08-19T00:36:36.533Z,100326.55
2018-08-19T00:39:08.661Z,100324.52
2018-08-19T00:41:40.532Z,100327.04
2018-08-19T00:44:10.718Z,100324.65
2018-08-19T00:46:42.596Z,100330.77
2018-08-19T00:49:14.453Z,100326.86
2018-08-19T00:51:49.740Z,100331.13
2018-08-19T00:54:20.488Z,100324.44
2018-08-19T00:56:56.002Z,100322.52
2018-08-19T00:59:30.696Z,100327.14
2018-08-19T01:02:01.341Z,100327.41
2018-08-19T01:04:31.449Z,100330.25
2018-08-19T01:07:03.217Z,100336.84
2018-08-19T01:09:34.266Z,100340.28
2018-08-19T01:12:05.979Z,100335.19
2018-08-19T01:14:38.447Z,100343.75
2018-08-19T01:17:10.165Z,100343.88
2018-08-19T01:19:42.943Z,100346.09
2018-08-19T01:22:14.567Z,100342.37
2018-08-19T01:24:45.050Z,100337.98
2018-08-19T01:27:15.995Z,100342.11
2018-08-19T01:29:46.293Z,100344.73
2018-08-19T01:32:19.184Z,100340.34
2018-08-19T01:34:49.018Z,100344.78
2018-08-19T01:37:20.051Z,100332.58
2018-08-19T01:39:51.936Z,100350.09
2018-08-19T01:42:22.272Z,100348.36
2018-08-19T01:44:52.130Z,100361.04
2018-08-19T01:47:22.386Z,100353.69
2018-08-19T01:49:51.814Z,100356.97
2018-08-19T01:52:21.160Z,100356.88
2018-08-19T01:54:50.455Z,100360.55
2018-08-19T01:57:21.662Z,100353.56
2018-08-19T01:59:52.025Z,100351.31
2018-08-19T02:02:21.338Z,100352.98
2018-08-19T02:04:57.084Z,100353.34
2018-08-19T02:07:29.500Z,100365.79
2018-08-19T02:10:04.632Z,100363.02
2018-08-19T02:12:39.035Z,100353.75
2018-08-19T02:15:12.011Z,100356.74
2018-08-19T02:17:46.513Z,100367.15
2018-08-19T02:20:16.942Z,100366.30
2018-08-19T02:22:52.243Z,100287.25
2018-08-19T02:25:25.954Z,100367.23
2018-08-19T02:27:55.808Z,100365.73
2018-08-19T02:30:25.115Z,100364.62
2018-08-19T02:32:55.864Z,100364.84
2018-08-19T02:35:25.161Z,100372.31
2018-08-19T02:37:55.003Z,100365.91
2018-08-19T02:40:32.146Z,100366.91
2018-08-19T02:43:02.926Z,100364.87
2018-08-19T02:45:34.174Z,100361.27
2018-08-19T02:48:05.330Z,100366.25
2018-08-19T02:50:34.927Z,100363.59
2018-08-19T02:53:04.797Z,100365.76
2018-08-19T02:55:34.053Z,100293.00
2018-08-19T02:58:08.692Z,100357.17
2018-08-19T03:00:40.361Z,100362.74
2018-08-19T03:03:09.894Z,100367.92
2018-08-19T03:05:41.565Z,100364.10
2018-08-19T03:08:15.238Z,100357.92
2018-08-19T03:10:44.662Z,100363.66
2018-08-19T03:13:14.618Z,100363.36
2018-08-19T03:15:45.514Z,100360.98
2018-08-19T03:18:15.353Z,100349.11
2018-08-19T03:20:46.495Z,100355.25
2018-08-19T03:23:16.043Z,100356.11
2018-08-19T03:25:46.243Z,100337.52
2018-08-19T03:28:15.891Z,100359.16
2018-08-19T03:30:50.575Z,100355.23
2018-08-19T03:33:21.769Z,100353.36
2018-08-19T03:35:51.052Z,100346.96
2018-08-19T03:38:20.392Z,100348.47
2018-08-19T03:40:49.768Z,100350.28
2018-08-19T03:43:19.673Z,100349.06
2018-08-19T03:45:49.021Z,100344.67
2018-08-19T03:48:19.218Z,100340.92
2018-08-19T03:50:48.654Z,100351.33
2018-08-19T03:53:18.757Z,100354.88
2018-08-19T03:55:48.879Z,100349.59
2018-08-19T03:58:18.685Z,100349.97
2018-08-19T04:00:49.325Z,100356.16
2018-08-19T04:03:23.935Z,100354.88
2018-08-19T04:05:56.174Z,100356.69
2018-08-19T04:08:40.391Z,100354.18
2018-08-19T04:11:10.538Z,100357.00
2018-08-19T04:13:41.276Z,100355.61
2018-08-19T04:16:12.247Z,100351.64
2018-08-19T04:18:43.665Z,100354.04
2018-08-19T04:21:14.132Z,100351.31
2018-08-19T04:23:45.625Z,100358.48
2018-08-19T04:26:16.344Z,100348.46
2018-08-19T04:28:46.625Z,100350.86
2018-08-19T04:31:21.033Z,100352.08
2018-08-19T04:33:51.118Z,100355.39
2018-08-19T04:36:23.677Z,100352.68
2018-08-19T04:38:54.103Z,100349.14
2018-08-19T04:41:24.831Z,100352.99
2018-08-19T04:43:57.647Z,100362.95
2018-08-19T04:46:47.281Z,100358.72
2018-08-19T04:49:17.763Z,100367.45
2018-08-19T04:51:49.095Z,100367.61
2018-08-19T04:54:21.720Z,100367.58
2018-08-19T04:56:54.472Z,100289.37
2018-08-19T04:59:28.019Z,100374.71
2018-08-19T05:02:00.688Z,100372.03
2018-08-19T05:04:35.240Z,100370.69
2018-08-19T05:07:13.084Z,100371.81
2018-08-19T05:09:45.893Z,100367.52
2018-08-19T05:12:20.098Z,100369.05
2018-08-19T05:14:52.826Z,100366.84
2018-08-19T05:17:25.463Z,100354.19
2018-08-19T05:20:07.480Z,100375.95
2018-08-19T05:22:41.284Z,100372.14
2018-08-19T05:25:15.642Z,100380.98
2018-08-19T05:27:53.730Z,100379.14
2018-08-19T05:30:27.536Z,100341.48
2018-08-19T05:33:03.881Z,100348.73
2018-08-19T05:35:36.998Z,100391.12
2018-08-19T05:38:10.006Z,100396.06
2018-08-19T05:40:55.024Z,100396.50
2018-08-19T05:43:26.448Z,100397.45
2018-08-19T05:46:02.639Z,100395.83
2018-08-19T05:48:34.647Z,100391.42
2018-08-19T05:51:06.712Z,100387.25
2018-08-19T05:53:42.935Z,100388.38
2018-08-19T05:56:16.216Z,100384.80
2018-08-19T05:58:49.364Z,100388.63
2018-08-19T06:01:27.535Z,100392.20
2018-08-19T06:03:59.881Z,100382.59
2018-08-19T06:06:32.039Z,100377.66
2018-08-19T06:09:05.223Z,100391.08
2018-08-19T06:11:40.245Z,100397.67
2018-08-19T06:14:17.228Z,100397.09
2018-08-19T06:16:50.642Z,100397.80
2018-08-19T06:19:24.119Z,100389.87
2018-08-19T06:21:56.907Z,100402.48
2018-08-19T06:26:55.250Z,100406.00
2018-08-19T06:29:39.660Z,100407.11
2018-08-19T06:32:17.006Z,100406.32
2018-08-19T06:34:50.238Z,100406.46
2018-08-19T06:37:23.187Z,100406.89
2018-08-19T06:39:55.016Z,100406.92
2018-08-19T06:42:29.272Z,100406.41
2018-08-19T06:45:00.734Z,100402.72
2018-08-19T06:47:33.877Z,100396.90
2018-08-19T06:50:15.759Z,100400.92
2018-08-19T06:52:50.692Z,100398.25
2018-08-19T06:55:23.380Z,100403.27
2018-08-19T06:58:02.486Z,100407.16
2018-08-19T07:00:35.912Z,100409.68
2018-08-19T07:03:09.890Z,100404.23
2018-08-19T07:05:44.798Z,100406.50
2018-08-19T07:08:18.799Z,100405.28
2018-08-19T07:10:54.734Z,100405.58
2018-08-19T07:13:25.794Z,100400.63
2018-08-19T07:16:02.804Z,100411.17
2018-08-19T07:18:35.527Z,100406.79
2018-08-19T07:21:08.872Z,100404.69
2018-08-19T07:23:43.702Z,100412.95
2018-08-19T07:26:18.085Z,100412.05
2018-08-19T07:28:51.777Z,100407.73
2018-08-19T07:31:26.694Z,100403.70
2018-08-19T07:34:00.395Z,100407.33
2018-08-19T07:36:33.204Z,100409.23
2018-08-19T07:39:08.922Z,100416.23
2018-08-19T07:41:42.524Z,100408.80
2018-08-19T07:44:18.009Z,100414.10
2018-08-19T07:46:51.953Z,100411.02
2018-08-19T07:49:28.457Z,100406.77
2018-08-19T07:52:00.950Z,100399.42
2018-08-19T07:54:34.617Z,100402.67
2018-08-19T07:57:13.414Z,100406.66
2018-08-19T07:59:49.545Z,100407.73
2018-08-19T08:02:22.299Z,100406.25
2018-08-19T08:04:59.432Z,100407.86
2018-08-19T08:07:34.881Z,100411.91
2018-08-19T08:10:09.092Z,100408.72
2018-08-19T08:12:43.570Z,100408.08
2018-08-19T08:15:28.290Z,100413.67
2018-08-19T08:18:00.531Z,100408.48
2018-08-19T08:20:35.210Z,100406.05
2018-08-19T08:23:21.259Z,100402.56
2018-08-19T08:25:54.887Z,100405.54
2018-08-19T08:28:28.224Z,100417.05
2018-08-19T08:31:00.642Z,100412.70
2018-08-19T08:33:36.134Z,100408.89
2018-08-19T08:36:12.273Z,100412.45
2018-08-19T08:38:46.599Z,100410.89
2018-08-19T08:41:19.317Z,100414.30
2018-08-19T08:43:51.791Z,100408.00
2018-08-19T08:46:26.341Z,100411.72
2018-08-19T08:49:02.712Z,100416.36
2018-08-19T08:51:37.320Z,100404.19
2018-08-19T08:54:13.020Z,100408.22
2018-08-19T08:56:46.517Z,100404.19
2018-08-19T08:59:21.761Z,100406.59
2018-08-19T09:01:54.490Z,100401.47
2018-08-19T09:04:29.015Z,100391.95
2018-08-19T09:07:01.262Z,100402.45
2018-08-19T09:09:31.645Z,100384.59
2018-08-19T09:12:06.173Z,100402.17
2018-08-19T09:14:40.635Z,100390.34
2018-08-19T09:17:17.855Z,100392.24
2018-08-19T09:19:52.651Z,100386.29
2018-08-19T09:22:24.921Z,100335.75
2018-08-19T09:24:58.697Z,100383.86
2018-08-19T09:27:33.200Z,100380.94
2018-08-19T09:30:49.167Z,100380.54
2018-08-19T09:33:30.284Z,100377.72
2018-08-19T09:36:11.337Z,100370.08
2018-08-19T09:38:44.258Z,100367.84
2018-08-19T09:41:19.483Z,100367.53
2018-08-19T09:43:53.026Z,100368.74
2018-08-19T09:46:26.377Z,100364.50
2018-08-19T09:49:00.633Z,100366.95
2018-08-19T09:51:33.760Z,100359.30
2018-08-19T09:54:07.073Z,100357.54
2018-08-19T09:56:45.429Z,100354.98
2018-08-19T09:59:21.711Z,100348.66
2018-08-19T10:01:57.468Z,100347.30
2018-08-19T10:04:32.979Z,100346.63
2018-08-19T10:07:11.572Z,100342.05
2018-08-19T10:09:46.987Z,100346.08
2018-08-19T10:12:21.424Z,100335.94
2018-08-19T10:14:55.980Z,100342.70
2018-08-19T10:17:30.240Z,100336.10
2018-08-19T10:20:03.178Z,100328.95
2018-08-19T10:22:42.024Z,100326.16
2018-08-19T10:25:20.739Z,100326.50
2018-08-19T10:27:55.943Z,100322.80
2018-08-19T10:30:31.555Z,100318.67
2018-08-19T10:33:11.914Z,100328.96
2018-08-19T10:35:45.281Z,100321.19
2018-08-19T10:38:20.063Z,100316.63
2018-08-19T10:41:07.471Z,100311.98
2018-08-19T10:43:40.590Z,100308.58
2018-08-19T10:46:14.765Z,100317.94
2018-08-19T10:48:59.991Z,100305.65
2018-08-19T10:51:32.528Z,100304.27
2018-08-19T10:54:05.522Z,100297.03
2018-08-19T10:56:40.414Z,100300.16
2018-08-19T10:59:17.477Z,100306.28
2018-08-19T11:01:51.007Z,100292.22
2018-08-19T11:04:24.449Z,100286.34
2018-08-19T11:06:58.296Z,100290.64
2018-08-19T11:09:33.655Z,100286.42
2018-08-19T11:12:07.195Z,100288.47
2018-08-19T11:14:42.011Z,100284.21
2018-08-19T11:17:16.360Z,100287.45
2018-08-19T11:19:55.618Z,100282.20
2018-08-19T11:22:31.703Z,100283.53
2018-08-19T11:25:08.644Z,100281.52
2018-08-19T11:27:41.410Z,100275.05
2018-08-19T11:30:22.757Z,100265.59
2018-08-19T11:32:56.500Z,100271.25
2018-08-19T11:35:34.773Z,100250.21
2018-08-19T11:38:08.020Z,100257.02
2018-08-19T11:40:49.842Z,100245.53
2018-08-19T11:43:25.917Z,100254.33
2018-08-19T11:46:00.380Z,100253.73
2018-08-19T11:48:34.670Z,100241.59
2018-08-19T11:51:09.711Z,100242.31
2018-08-19T11:53:42.795Z,100241.15
2018-08-19T11:56:15.848Z,100241.25
2018-08-19T11:58:52.978Z,100238.94
2018-08-19T12:01:27.749Z,100237.44
2018-08-19T12:04:08.489Z,100221.08
2018-08-19T12:06:42.906Z,100225.59
2018-08-19T12:09:21.999Z,100226.08
2018-08-19T12:11:56.341Z,100223.55
2018-08-19T12:14:30.461Z,100224.02
2018-08-19T12:17:05.427Z,100204.27
2018-08-19T12:19:43.612Z,100210.33
2018-08-19T12:22:25.373Z,100203.64
2018-08-19T12:25:02.618Z,100193.03
2018-08-19T12:27:38.736Z,100200.20
2018-08-19T12:30:23.392Z,100199.84
2018-08-19T12:33:05.087Z,100185.92
2018-08-19T12:35:40.604Z,100186.56
2018-08-19T12:38:16.315Z,100190.80
2018-08-19T12:40:52.797Z,100179.17
2018-08-19T12:43:37.828Z,100182.08
2018-08-19T12:46:27.467Z,100168.47
2018-08-19T12:51:52.505Z,100172.64
2018-08-19T12:54:28.539Z,100169.52
2018-08-19T12:57:05.357Z,100178.39
2018-08-19T12:59:45.440Z,100168.27
2018-08-19T13:02:31.468Z,100165.84
2018-08-19T13:05:07.709Z,100160.40
2018-08-19T13:07:50.996Z,100159.31
2018-08-19T13:10:38.134Z,100152.66
2018-08-19T13:13:14.311Z,100154.94
2018-08-19T13:15:54.517Z,100143.30
2018-08-19T13:21:18.811Z,100139.95
2018-08-19T13:23:56.975Z,100134.38
2018-08-19T13:26:32.292Z,100131.80
2018-08-19T13:29:09.520Z,100126.81
2018-08-19T13:31:46.908Z,100131.55
2018-08-19T13:34:33.188Z,100129.84
2018-08-19T13:37:10.865Z,100120.52
2018-08-19T13:39:51.214Z,100120.06
2018-08-19T13:42:27.295Z,100113.16
2018-08-19T13:45:18.322Z,100118.64
2018-08-19T13:47:56.938Z,100109.09
2018-08-19T13:50:30.733Z,100106.42
2018-08-19T13:53:12.856Z,100107.86
2018-08-19T13:55:47.330Z,100095.38
2018-08-19T13:58:23.387Z,100095.73
2018-08-19T14:00:55.686Z,100085.42
2018-08-19T14:03:31.411Z,100081.89
2018-08-19T14:06:09.244Z,100080.29
2018-08-19T14:08:47.733Z,100085.88
2018-08-19T14:11:25.026Z,100076.78
2018-08-19T14:14:00.320Z,100076.72
2018-08-19T14:16:44.302Z,100075.08
2018-08-19T14:19:19.817Z,100074.05
2018-08-19T14:22:01.685Z,100062.55
2018-08-19T14:24:36.809Z,100062.42
2018-08-19T14:27:14.370Z,100063.05
2018-08-19T14:29:52.536Z,100057.63
2018-08-19T14:32:39.683Z,100055.17
2018-08-19T14:35:15.490Z,100059.14
2018-08-19T14:37:56.437Z,100059.70
2018-08-19T14:40:31.677Z,100059.64
2018-08-19T14:43:10.219Z,100056.15
2018-08-19T14:45:48.060Z,100040.00
2018-08-19T14:48:27.565Z,100038.86
2018-08-19T14:51:01.155Z,100050.52
2018-08-19T14:53:34.013Z,100049.47
2018-08-19T14:56:18.907Z,100042.12
2018-08-19T14:59:00.990Z,100038.77
2018-08-19T15:01:35.955Z,100041.33
2018-08-19T15:04:17.750Z,100033.78
2018-08-19T15:06:52.214Z,100041.23
2018-08-19T15:09:34.650Z,100031.69
2018-08-19T15:12:22.731Z,100017.75
2018-08-19T15:15:04.372Z,100030.33
2018-08-19T15:17:40.073Z,100024.38
2018-08-19T15:20:21.730Z,100036.04
2018-08-19T15:23:06.939Z,100030.55
2018-08-19T15:25:42.911Z,100029.84
2018-08-19T15:28:20.273Z,100037.45
2018-08-19T15:31:03.365Z,100030.05
2018-08-19T15:33:40.548Z,100026.91
2018-08-19T15:36:15.487Z,100010.77
2018-08-19T15:38:50.939Z,100015.26
2018-08-19T15:41:27.516Z,100008.81
2018-08-19T15:44:03.733Z,100017.84
2018-08-19T15:46:38.533Z,100011.71
2018-08-19T15:49:15.650Z,100012.73
2018-08-19T15:51:49.268Z,100012.67
2018-08-19T15:54:25.841Z,100015.03
2018-08-19T15:57:08.609Z,100006.45
2018-08-19T15:59:40.847Z,100005.90
2018-08-19T16:02:17.588Z,100010.30
2018-08-19T16:04:59.927Z,99951.08
2018-08-19T16:07:37.614Z,100001.28
2018-08-19T16:10:11.740Z,100000.05
2018-08-19T16:12:51.626Z,99990.34
2018-08-19T16:15:34.024Z,99989.42
2018-08-19T16:18:10.347Z,99987.77
2018-08-19T16:20:45.857Z,99944.72
2018-08-19T16:23:20.927Z,99984.66
2018-08-19T16:25:56.583Z,99983.22
2018-08-19T16:28:31.406Z,99980.53
2018-08-19T16:31:04.709Z,99980.92
2018-08-19T16:33:39.048Z,99979.31
2018-08-19T16:36:12.220Z,99965.49
2018-08-19T16:38:48.066Z,99968.13
2018-08-19T16:41:22.636Z,99970.72
2018-08-19T16:43:58.613Z,99963.59
2018-08-19T16:46:31.848Z,99967.08
2018-08-19T16:49:09.082Z,99968.70
2018-08-19T16:51:42.046Z,99958.75
2018-08-19T16:54:19.168Z,99959.62
2018-08-19T16:56:54.359Z,99957.33
2018-08-19T16:59:29.028Z,99958.30
2018-08-19T17:02:01.290Z,99954.81
2018-08-19T17:04:40.352Z,99951.58
2018-08-19T17:07:15.480Z,99872.86
2018-08-19T17:09:49.662Z,99948.55
2018-08-19T17:12:26.241Z,99948.91
2018-08-19T17:15:06.372Z,99947.16
2018-08-19T17:17:38.641Z,99899.19
2018-08-19T17:20:16.450Z,99945.44
2018-08-19T17:22:53.691Z,99949.66
2018-08-19T17:25:30.396Z,99939.20
2018-08-19T17:28:08.532Z,99950.12
2018-08-19T17:31:00.518Z,99945.16
2018-08-19T17:36:27.836Z,99943.36
2018-08-19T17:39:10.705Z,99943.45
2018-08-19T17:41:44.541Z,99946.13
2018-08-19T17:44:20.504Z,99946.34
2018-08-19T17:46:57.549Z,99951.38
2018-08-19T17:49:32.764Z,99947.17
2018-08-19T17:52:09.346Z,99944.02
2018-08-19T17:54:41.090Z,99938.73
2018-08-19T17:57:18.735Z,99945.00
2018-08-19T17:59:52.453Z,99944.83
2018-08-19T18:02:25.288Z,99947.78
2018-08-19T18:05:01.564Z,99953.06
2018-08-19T18:07:37.008Z,99953.49
2018-08-19T18:10:15.077Z,99954.78
2018-08-19T18:12:49.981Z,99968.63
2018-08-19T18:15:29.821Z,99960.63
2018-08-19T18:18:07.110Z,99961.81
2018-08-19T18:20:43.269Z,99966.06
2018-08-19T18:23:22.955Z,99959.04
2018-08-19T18:25:57.869Z,99959.09
2018-08-19T18:28:36.681Z,99955.66
2018-08-19T18:31:11.309Z,99964.80
2018-08-19T18:33:52.381Z,99962.44
2018-08-19T18:36:27.205Z,99959.98
2018-08-19T18:39:01.292Z,99960.25
2018-08-19T18:41:37.901Z,99970.03
2018-08-19T18:44:11.124Z,99971.25
2018-08-19T18:46:45.927Z,99977.73
2018-08-19T18:49:19.568Z,99970.84
2018-08-19T18:51:55.904Z,99972.48
2018-08-19T18:54:31.123Z,99974.00
2018-08-19T18:57:06.429Z,99971.09
2018-08-19T18:59:42.538Z,99962.67
2018-08-19T19:02:18.669Z,99973.21
2018-08-19T19:04:52.729Z,99971.86
2018-08-19T19:07:27.633Z,99971.72
2018-08-19T19:09:59.342Z,99970.09
2018-08-19T19:12:34.331Z,99971.85
2018-08-19T19:15:06.594Z,99978.20
2018-08-19T19:17:42.940Z,99976.77
2018-08-19T19:20:16.623Z,99978.76
2018-08-19T19:22:55.329Z,99973.17
2018-08-19T19:25:32.356Z,99984.09
2018-08-19T19:28:07.319Z,99980.39
2018-08-19T19:30:38.236Z,99981.44
2018-08-19T19:33:14.117Z,99981.37
2018-08-19T19:35:47.066Z,99989.39
2018-08-19T19:38:22.505Z,99989.51
2018-08-19T19:40:57.563Z,99984.95
2018-08-19T19:43:34.254Z,99984.14
2018-08-19T19:46:06.614Z,99989.92
2018-08-19T19:48:40.512Z,99989.08
2018-08-19T19:51:11.137Z,99993.17
2018-08-19T19:53:45.092Z,99994.37
2018-08-19T19:56:17.328Z,99988.27
2018-08-19T19:58:50.652Z,99989.29
2018-08-19T20:01:25.766Z,99994.53
2018-08-19T20:03:59.927Z,99993.49
2018-08-19T20:06:36.908Z,99999.48
2018-08-19T20:09:14.846Z,99998.48
2018-08-19T20:11:50.075Z,100003.64
2018-08-19T20:14:21.967Z,100006.53
2018-08-19T20:17:08.785Z,100009.53
2018-08-19T20:19:44.243Z,100008.09
2018-08-19T20:22:21.285Z,99928.29
2018-08-19T20:25:03.651Z,100011.09
2018-08-19T20:27:36.880Z,100012.26
2018-08-19T20:30:08.453Z,100017.77
2018-08-19T20:32:43.697Z,100017.48
2018-08-19T20:35:14.557Z,100017.80
2018-08-19T20:37:45.659Z,100024.19
2018-08-19T20:40:16.570Z,100023.39
2018-08-19T20:42:49.832Z,100015.18
2018-08-19T20:45:22.650Z,100018.67
2018-08-19T20:47:56.513Z,100017.92
2018-08-19T20:50:27.642Z,100015.92
2018-08-19T20:52:58.963Z,100020.37
2018-08-19T20:55:28.241Z,100020.52
2018-08-19T20:57:59.285Z,100019.47
2018-08-19T21:00:28.472Z,100022.62
2018-08-19T21:03:01.669Z,100025.11
2018-08-19T21:05:31.430Z,100022.99
2018-08-19T21:08:08.135Z,100031.27
2018-08-19T21:10:41.971Z,100028.19
2018-08-19T21:13:14.738Z,100030.63
2018-08-19T21:15:47.376Z,100032.58
2018-08-19T21:18:17.885Z,100031.23
2018-08-19T21:20:48.061Z,100029.61
2018-08-19T21:23:21.457Z,100031.82
2018-08-19T21:25:57.056Z,100034.83
2018-08-19T21:28:36.211Z,100027.44
2018-08-19T21:31:06.442Z,100037.03
2018-08-19T21:33:40.583Z,100037.33
2018-08-19T21:36:12.377Z,100035.68
2018-08-19T21:38:43.496Z,100038.41
2018-08-19T21:41:17.872Z,100032.39
2018-08-19T21:43:48.725Z,100038.40
2018-08-19T21:46:21.017Z,100041.98
2018-08-19T21:48:58.535Z,100048.28
2018-08-19T21:51:30.473Z,100045.00
2018-08-19T21:54:02.462Z,100040.33
2018-08-19T21:56:33.155Z,100037.33
2018-08-19T21:59:06.751Z,100042.52
2018-08-19T22:01:43.603Z,100039.77
2018-08-19T22:04:13.758Z,100042.77
2018-08-19T22:06:44.710Z,100043.85
2018-08-19T22:09:28.132Z,100046.87
2018-08-19T22:11:58.879Z,100049.61
2018-08-19T22:14:29.519Z,100052.33
2018-08-19T22:17:05.577Z,100049.39
2018-08-19T22:19:36.089Z,100044.67
2018-08-19T22:22:07.625Z,100038.63
2018-08-19T22:24:38.717Z,100043.09
2018-08-19T22:27:13.677Z,100044.42
2018-08-19T22:29:46.536Z,100044.13
2018-08-19T22:32:19.628Z,100046.34
2018-08-19T22:34:50.600Z,100030.68
2018-08-19T22:37:33.983Z,100051.81
2018-08-19T22:40:04.433Z,100045.52
2018-08-19T22:42:35.296Z,100047.94
2018-08-19T22:45:11.768Z,100049.84
2018-08-19T22:47:45.669Z,100053.12
2018-08-19T22:50:17.327Z,100040.80
2018-08-19T22:52:51.515Z,100041.63
2018-08-19T22:55:28.978Z,100041.38
2018-08-19T22:58:02.875Z,100041.59
2018-08-19T23:00:38.738Z,100045.11
2018-08-19T23:03:13.637Z,100041.55
2018-08-19T23:05:47.369Z,100047.81
2018-08-19T23:08:22.258Z,100044.23
2018-08-19T23:10:52.595Z,100042.84
2018-08-19T23:13:35.548Z,100038.77
2018-08-19T23:16:09.273Z,100040.90
2018-08-19T23:18:43.093Z,100038.15
2018-08-19T23:21:13.673Z,100010.45
2018-08-19T23:23:42.934Z,100043.94
2018-08-19T23:26:13.511Z,100047.73
2018-08-19T23:28:44.554Z,100041.17
2018-08-19T23:31:14.664Z,100041.89
2018-08-19T23:33:45.058Z,100048.72
2018-08-19T23:36:16.793Z,100047.14
2018-08-19T23:38:46.053Z,100043.00
2018-08-19T23:41:15.394Z,100035.41
2018-08-19T23:43:45.249Z,100053.01
2018-08-19T23:46:15.394Z,100050.70
2018-08-19T23:48:44.661Z,100032.58
2018-08-19T23:51:19.301Z,100044.23
2018-08-19T23:53:49.552Z,100055.62
2018-08-19T23:56:19.476Z,100022.69
2018-08-19T23:58:49.116Z,100052.02
